sensor_id;sensor_type;location;lat;lon;timestamp;temperature;humidity
29281;DHT22;25048;49.590;11.026;2023-04-26T00:01:02;4.30;99.90
29281;DHT22;25048;49.590;11.026;2023-04-26T00:03:32;4.40;99.90
29281;DHT22;25048;49.590;11.026;2023-04-26T00:06:00;4.40;99.90
29281;DHT22;25048;49.590;11.026;2023-04-26T00:08:31;4.40;99.90
29281;DHT22;25048;49.590;11.026;2023-04-26T00:10:59;4.50;99.90
29281;DHT22;25048;49.590;11.026;2023-04-26T00:13:26;4.40;99.90
29281;DHT22;25048;49.590;11.026;2023-04-26T00:15:54;4.30;99.90
29281;DHT22;25048;49.590;11.026;2023-04-26T00:18:21;4.30;99.90
29281;DHT22;25048;49.590;11.026;2023-04-26T00:20:49;4.30;99.90
29281;DHT22;25048;49.590;11.026;2023-04-26T00:23:17;4.30;99.90
29281;DHT22;25048;49.590;11.026;2023-04-26T00:25:44;4.30;99.90
29281;DHT22;25048;49.590;11.026;2023-04-26T00:28:12;4.20;99.90
29281;DHT22;25048;49.590;11.026;2023-04-26T00:30:39;4.00;99.90
29281;DHT22;25048;49.590;11.026;2023-04-26T00:33:09;4.00;99.90
29281;DHT22;25048;49.590;11.026;2023-04-26T00:35:36;4.10;99.90
29281;DHT22;25048;49.590;11.026;2023-04-26T00:38:04;4.20;99.90
29281;DHT22;25048;49.590;11.026;2023-04-26T00:40:31;4.20;99.90
29281;DHT22;25048;49.590;11.026;2023-04-26T00:43:02;4.10;99.90
29281;DHT22;25048;49.590;11.026;2023-04-26T00:45:30;4.10;99.90
29281;DHT22;25048;49.590;11.026;2023-04-26T00:47:58;4.10;99.90
29281;DHT22;25048;49.590;11.026;2023-04-26T00:50:28;4.00;99.90
29281;DHT22;25048;49.590;11.026;2023-04-26T00:52:58;4.10;99.90
29281;DHT22;25048;49.590;11.026;2023-04-26T00:55:26;4.00;99.90
29281;DHT22;25048;49.590;11.026;2023-04-26T00:57:54;3.80;99.90
29281;DHT22;25048;49.590;11.026;2023-04-26T01:00:21;3.80;99.90
29281;DHT22;25048;49.590;11.026;2023-04-26T01:02:49;3.70;99.90
29281;DHT22;25048;49.590;11.026;2023-04-26T01:05:17;3.60;99.90
29281;DHT22;25048;49.590;11.026;2023-04-26T01:07:45;3.60;99.90
29281;DHT22;25048;49.590;11.026;2023-04-26T01:10:12;3.60;99.90
29281;DHT22;25048;49.590;11.026;2023-04-26T01:12:40;3.50;99.90
29281;DHT22;25048;49.590;11.026;2023-04-26T01:15:08;3.40;99.90
29281;DHT22;25048;49.590;11.026;2023-04-26T01:17:37;3.30;99.90
29281;DHT22;25048;49.590;11.026;2023-04-26T01:20:05;3.30;99.90
29281;DHT22;25048;49.590;11.026;2023-04-26T01:22:35;3.20;99.90
29281;DHT22;25048;49.590;11.026;2023-04-26T01:25:03;3.10;99.90
29281;DHT22;25048;49.590;11.026;2023-04-26T01:27:34;3.10;99.90
29281;DHT22;25048;49.590;11.026;2023-04-26T01:30:01;3.10;99.90
29281;DHT22;25048;49.590;11.026;2023-04-26T01:32:29;3.00;99.90
29281;DHT22;25048;49.590;11.026;2023-04-26T01:34:56;2.90;99.90
29281;DHT22;25048;49.590;11.026;2023-04-26T01:37:24;3.00;99.90
29281;DHT22;25048;49.590;11.026;2023-04-26T01:39:52;2.90;99.90
29281;DHT22;25048;49.590;11.026;2023-04-26T01:42:19;2.80;99.90
29281;DHT22;25048;49.590;11.026;2023-04-26T01:44:47;2.60;99.90
29281;DHT22;25048;49.590;11.026;2023-04-26T01:47:15;2.40;99.90
29281;DHT22;25048;49.590;11.026;2023-04-26T01:49:42;2.20;99.90
29281;DHT22;25048;49.590;11.026;2023-04-26T01:52:10;2.00;99.90
29281;DHT22;25048;49.590;11.026;2023-04-26T01:54:37;1.80;99.90
29281;DHT22;25048;49.590;11.026;2023-04-26T01:57:05;1.60;99.90
29281;DHT22;25048;49.590;11.026;2023-04-26T01:59:32;1.40;99.90
29281;DHT22;25048;49.590;11.026;2023-04-26T02:02:00;1.30;99.90
29281;DHT22;25048;49.590;11.026;2023-04-26T02:04:27;1.10;99.90
29281;DHT22;25048;49.590;11.026;2023-04-26T02:06:55;1.00;99.90
29281;DHT22;25048;49.590;11.026;2023-04-26T02:09:22;0.80;99.90
29281;DHT22;25048;49.590;11.026;2023-04-26T02:11:50;0.80;99.90
29281;DHT22;25048;49.590;11.026;2023-04-26T02:14:17;0.70;99.90
29281;DHT22;25048;49.590;11.026;2023-04-26T02:16:45;0.60;99.90
29281;DHT22;25048;49.590;11.026;2023-04-26T02:19:13;0.50;99.90
29281;DHT22;25048;49.590;11.026;2023-04-26T02:21:55;0.40;99.90
29281;DHT22;25048;49.590;11.026;2023-04-26T02:24:23;0.30;99.90
29281;DHT22;25048;49.590;11.026;2023-04-26T02:26:51;0.10;99.90
29281;DHT22;25048;49.590;11.026;2023-04-26T02:29:20;0.10;99.90
29281;DHT22;25048;49.590;11.026;2023-04-26T02:31:47;0.00;99.90
29281;DHT22;25048;49.590;11.026;2023-04-26T02:34:15;0.00;99.90
29281;DHT22;25048;49.590;11.026;2023-04-26T02:36:42;-0.10;99.90
29281;DHT22;25048;49.590;11.026;2023-04-26T02:39:10;-0.10;99.90
29281;DHT22;25048;49.590;11.026;2023-04-26T02:41:38;-0.20;99.90
29281;DHT22;25048;49.590;11.026;2023-04-26T02:44:06;-0.20;99.90
29281;DHT22;25048;49.590;11.026;2023-04-26T02:46:34;-0.20;99.90
29281;DHT22;25048;49.590;11.026;2023-04-26T02:49:01;-0.20;99.90
29281;DHT22;25048;49.590;11.026;2023-04-26T02:51:29;-0.20;99.90
29281;DHT22;25048;49.590;11.026;2023-04-26T02:53:58;-0.30;99.90
29281;DHT22;25048;49.590;11.026;2023-04-26T02:56:25;-0.30;99.90
29281;DHT22;25048;49.590;11.026;2023-04-26T02:58:53;-0.40;99.90
29281;DHT22;25048;49.590;11.026;2023-04-26T03:01:20;-0.50;99.90
29281;DHT22;25048;49.590;11.026;2023-04-26T03:03:48;-0.60;99.90
29281;DHT22;25048;49.590;11.026;2023-04-26T03:06:15;-0.50;99.90
29281;DHT22;25048;49.590;11.026;2023-04-26T03:08:43;-0.50;99.90
29281;DHT22;25048;49.590;11.026;2023-04-26T03:11:10;-0.60;99.90
29281;DHT22;25048;49.590;11.026;2023-04-26T03:13:38;-0.70;99.90
29281;DHT22;25048;49.590;11.026;2023-04-26T03:16:06;-0.80;99.90
29281;DHT22;25048;49.590;11.026;2023-04-26T03:18:33;-0.80;99.90
29281;DHT22;25048;49.590;11.026;2023-04-26T03:21:01;-0.90;99.90
29281;DHT22;25048;49.590;11.026;2023-04-26T03:23:29;-0.90;99.90
29281;DHT22;25048;49.590;11.026;2023-04-26T03:25:56;-1.00;99.90
29281;DHT22;25048;49.590;11.026;2023-04-26T03:28:24;-1.10;99.90
29281;DHT22;25048;49.590;11.026;2023-04-26T03:30:51;-1.10;99.90
29281;DHT22;25048;49.590;11.026;2023-04-26T03:33:19;-1.20;99.90
29281;DHT22;25048;49.590;11.026;2023-04-26T03:35:46;-1.20;99.90
29281;DHT22;25048;49.590;11.026;2023-04-26T03:38:14;-1.20;99.90
29281;DHT22;25048;49.590;11.026;2023-04-26T03:40:42;-1.30;99.90
29281;DHT22;25048;49.590;11.026;2023-04-26T03:43:10;-1.30;99.90
29281;DHT22;25048;49.590;11.026;2023-04-26T03:45:37;-1.30;99.90
29281;DHT22;25048;49.590;11.026;2023-04-26T03:48:05;-1.40;99.90
29281;DHT22;25048;49.590;11.026;2023-04-26T03:50:32;-1.30;99.90
29281;DHT22;25048;49.590;11.026;2023-04-26T03:53:00;-1.30;99.90
29281;DHT22;25048;49.590;11.026;2023-04-26T03:55:27;-1.30;99.90
29281;DHT22;25048;49.590;11.026;2023-04-26T03:57:55;-1.30;99.90
29281;DHT22;25048;49.590;11.026;2023-04-26T04:00:23;-1.30;99.90
29281;DHT22;25048;49.590;11.026;2023-04-26T04:02:50;-1.20;99.90
29281;DHT22;25048;49.590;11.026;2023-04-26T04:05:18;-1.20;99.90
29281;DHT22;25048;49.590;11.026;2023-04-26T04:07:46;-1.30;99.90
29281;DHT22;25048;49.590;11.026;2023-04-26T04:10:13;-1.30;99.90
29281;DHT22;25048;49.590;11.026;2023-04-26T04:12:41;-1.40;99.90
29281;DHT22;25048;49.590;11.026;2023-04-26T04:15:09;-1.40;99.90
29281;DHT22;25048;49.590;11.026;2023-04-26T04:17:37;-1.40;99.90
29281;DHT22;25048;49.590;11.026;2023-04-26T04:20:07;-1.40;99.90
29281;DHT22;25048;49.590;11.026;2023-04-26T04:22:35;-1.40;99.90
29281;DHT22;25048;49.590;11.026;2023-04-26T04:25:05;-1.40;99.90
29281;DHT22;25048;49.590;11.026;2023-04-26T04:27:32;-1.50;99.90
29281;DHT22;25048;49.590;11.026;2023-04-26T04:30:00;-1.50;99.90
29281;DHT22;25048;49.590;11.026;2023-04-26T04:32:29;-1.50;99.90
29281;DHT22;25048;49.590;11.026;2023-04-26T04:34:58;-1.50;99.90
29281;DHT22;25048;49.590;11.026;2023-04-26T04:37:26;-1.40;99.90
29281;DHT22;25048;49.590;11.026;2023-04-26T04:39:55;-1.40;99.90
29281;DHT22;25048;49.590;11.026;2023-04-26T04:42:23;-1.40;99.90
29281;DHT22;25048;49.590;11.026;2023-04-26T04:44:53;-1.30;99.90
29281;DHT22;25048;49.590;11.026;2023-04-26T04:47:21;-1.20;99.90
29281;DHT22;25048;49.590;11.026;2023-04-26T04:49:49;-1.20;99.90
29281;DHT22;25048;49.590;11.026;2023-04-26T04:52:17;-1.10;99.90
29281;DHT22;25048;49.590;11.026;2023-04-26T04:54:46;-1.00;99.90
29281;DHT22;25048;49.590;11.026;2023-04-26T04:57:14;-1.00;99.90
29281;DHT22;25048;49.590;11.026;2023-04-26T04:59:42;-0.90;99.90
29281;DHT22;25048;49.590;11.026;2023-04-26T05:02:09;-0.90;99.90
29281;DHT22;25048;49.590;11.026;2023-04-26T05:04:37;-0.80;99.90
29281;DHT22;25048;49.590;11.026;2023-04-26T05:07:04;-0.70;99.90
29281;DHT22;25048;49.590;11.026;2023-04-26T05:09:32;-0.60;99.90
29281;DHT22;25048;49.590;11.026;2023-04-26T05:12:00;-0.50;99.90
29281;DHT22;25048;49.590;11.026;2023-04-26T05:14:29;-0.30;99.90
29281;DHT22;25048;49.590;11.026;2023-04-26T05:16:57;-0.20;99.90
29281;DHT22;25048;49.590;11.026;2023-04-26T05:19:24;-0.10;99.90
29281;DHT22;25048;49.590;11.026;2023-04-26T05:21:52;0.00;99.90
29281;DHT22;25048;49.590;11.026;2023-04-26T05:24:20;0.20;99.90
29281;DHT22;25048;49.590;11.026;2023-04-26T05:26:47;0.40;99.90
29281;DHT22;25048;49.590;11.026;2023-04-26T05:29:15;0.60;99.90
29281;DHT22;25048;49.590;11.026;2023-04-26T05:31:42;0.80;99.90
29281;DHT22;25048;49.590;11.026;2023-04-26T05:34:10;1.10;99.90
29281;DHT22;25048;49.590;11.026;2023-04-26T05:36:38;1.40;99.90
29281;DHT22;25048;49.590;11.026;2023-04-26T05:39:05;1.70;99.90
29281;DHT22;25048;49.590;11.026;2023-04-26T05:41:33;2.00;99.90
29281;DHT22;25048;49.590;11.026;2023-04-26T05:44:01;2.40;99.90
29281;DHT22;25048;49.590;11.026;2023-04-26T05:46:29;2.80;99.90
29281;DHT22;25048;49.590;11.026;2023-04-26T05:48:57;3.40;99.90
29281;DHT22;25048;49.590;11.026;2023-04-26T05:51:24;3.90;99.90
29281;DHT22;25048;49.590;11.026;2023-04-26T05:53:52;4.40;99.90
29281;DHT22;25048;49.590;11.026;2023-04-26T05:56:19;5.10;99.90
29281;DHT22;25048;49.590;11.026;2023-04-26T05:58:47;5.70;99.90
29281;DHT22;25048;49.590;11.026;2023-04-26T06:01:14;6.30;99.90
29281;DHT22;25048;49.590;11.026;2023-04-26T06:03:44;6.70;99.90
29281;DHT22;25048;49.590;11.026;2023-04-26T06:06:12;7.10;99.90
29281;DHT22;25048;49.590;11.026;2023-04-26T06:08:42;7.40;99.90
29281;DHT22;25048;49.590;11.026;2023-04-26T06:11:09;7.70;99.90
29281;DHT22;25048;49.590;11.026;2023-04-26T06:13:37;7.90;99.90
29281;DHT22;25048;49.590;11.026;2023-04-26T06:16:04;8.00;99.90
29281;DHT22;25048;49.590;11.026;2023-04-26T06:18:32;8.20;99.90
29281;DHT22;25048;49.590;11.026;2023-04-26T06:20:59;8.40;99.90
29281;DHT22;25048;49.590;11.026;2023-04-26T06:23:27;8.60;99.90
29281;DHT22;25048;49.590;11.026;2023-04-26T06:25:54;8.90;99.90
29281;DHT22;25048;49.590;11.026;2023-04-26T06:28:22;9.00;99.90
29281;DHT22;25048;49.590;11.026;2023-04-26T06:30:49;9.10;99.90
29281;DHT22;25048;49.590;11.026;2023-04-26T06:33:17;9.30;99.90
29281;DHT22;25048;49.590;11.026;2023-04-26T06:35:44;9.50;99.90
29281;DHT22;25048;49.590;11.026;2023-04-26T06:38:12;9.70;99.90
29281;DHT22;25048;49.590;11.026;2023-04-26T06:40:39;9.90;99.90
29281;DHT22;25048;49.590;11.026;2023-04-26T06:43:07;10.20;99.90
29281;DHT22;25048;49.590;11.026;2023-04-26T06:45:34;10.50;99.90
29281;DHT22;25048;49.590;11.026;2023-04-26T06:48:02;10.70;99.90
29281;DHT22;25048;49.590;11.026;2023-04-26T06:50:30;10.80;99.90
29281;DHT22;25048;49.590;11.026;2023-04-26T06:52:58;10.70;99.90
29281;DHT22;25048;49.590;11.026;2023-04-26T06:55:25;10.60;99.90
29281;DHT22;25048;49.590;11.026;2023-04-26T06:57:53;10.60;99.90
29281;DHT22;25048;49.590;11.026;2023-04-26T07:00:21;10.50;99.90
29281;DHT22;25048;49.590;11.026;2023-04-26T07:02:48;10.40;99.90
29281;DHT22;25048;49.590;11.026;2023-04-26T07:05:16;10.10;99.90
29281;DHT22;25048;49.590;11.026;2023-04-26T07:07:43;10.00;99.90
29281;DHT22;25048;49.590;11.026;2023-04-26T07:10:12;9.80;99.90
29281;DHT22;25048;49.590;11.026;2023-04-26T07:12:39;9.80;99.90
29281;DHT22;25048;49.590;11.026;2023-04-26T07:15:07;9.70;99.90
29281;DHT22;25048;49.590;11.026;2023-04-26T07:17:35;9.70;99.90
29281;DHT22;25048;49.590;11.026;2023-04-26T07:20:03;9.60;99.90
29281;DHT22;25048;49.590;11.026;2023-04-26T07:22:31;9.70;99.90
29281;DHT22;25048;49.590;11.026;2023-04-26T07:24:58;9.70;99.90
29281;DHT22;25048;49.590;11.026;2023-04-26T07:27:26;9.80;99.90
29281;DHT22;25048;49.590;11.026;2023-04-26T07:29:54;9.80;99.90
29281;DHT22;25048;49.590;11.026;2023-04-26T07:32:24;9.70;99.90
29281;DHT22;25048;49.590;11.026;2023-04-26T07:34:52;9.70;99.90
29281;DHT22;25048;49.590;11.026;2023-04-26T07:37:19;9.80;99.90
29281;DHT22;25048;49.590;11.026;2023-04-26T07:39:47;9.70;99.90
29281;DHT22;25048;49.590;11.026;2023-04-26T07:42:14;9.70;99.90
29281;DHT22;25048;49.590;11.026;2023-04-26T07:44:42;9.80;99.90
29281;DHT22;25048;49.590;11.026;2023-04-26T07:47:13;10.00;99.90
29281;DHT22;25048;49.590;11.026;2023-04-26T07:49:41;10.40;99.90
29281;DHT22;25048;49.590;11.026;2023-04-26T07:52:09;10.70;99.90
29281;DHT22;25048;49.590;11.026;2023-04-26T07:54:36;11.10;99.90
29281;DHT22;25048;49.590;11.026;2023-04-26T07:57:05;11.00;99.60
29281;DHT22;25048;49.590;11.026;2023-04-26T07:59:33;10.70;99.50
29281;DHT22;25048;49.590;11.026;2023-04-26T08:02:00;10.50;99.90
29281;DHT22;25048;49.590;11.026;2023-04-26T08:04:32;10.30;99.90
29281;DHT22;25048;49.590;11.026;2023-04-26T08:07:00;10.40;99.90
29281;DHT22;25048;49.590;11.026;2023-04-26T08:09:28;10.60;99.90
29281;DHT22;25048;49.590;11.026;2023-04-26T08:11:56;10.90;99.90
29281;DHT22;25048;49.590;11.026;2023-04-26T08:14:24;11.30;99.90
29281;DHT22;25048;49.590;11.026;2023-04-26T08:16:51;11.60;99.20
29281;DHT22;25048;49.590;11.026;2023-04-26T08:19:19;11.90;98.60
29281;DHT22;25048;49.590;11.026;2023-04-26T08:21:46;12.00;96.60
29281;DHT22;25048;49.590;11.026;2023-04-26T08:24:14;11.90;97.80
29281;DHT22;25048;49.590;11.026;2023-04-26T08:26:41;11.60;95.50
29281;DHT22;25048;49.590;11.026;2023-04-26T08:29:09;11.40;96.60
29281;DHT22;25048;49.590;11.026;2023-04-26T08:31:37;11.30;95.10
29281;DHT22;25048;49.590;11.026;2023-04-26T08:34:04;11.30;94.80
29281;DHT22;25048;49.590;11.026;2023-04-26T08:36:36;11.60;94.70
29281;DHT22;25048;49.590;11.026;2023-04-26T08:39:04;12.20;96.00
29281;DHT22;25048;49.590;11.026;2023-04-26T08:41:39;12.50;93.00
29281;DHT22;25048;49.590;11.026;2023-04-26T08:44:05;12.40;92.40
29281;DHT22;25048;49.590;11.026;2023-04-26T08:46:40;12.10;92.90
29281;DHT22;25048;49.590;11.026;2023-04-26T08:49:18;12.30;92.20
29281;DHT22;25048;49.590;11.026;2023-04-26T08:51:44;12.80;91.60
29281;DHT22;25048;49.590;11.026;2023-04-26T08:54:14;13.50;91.80
29281;DHT22;25048;49.590;11.026;2023-04-26T08:56:43;14.30;90.40
29281;DHT22;25048;49.590;11.026;2023-04-26T08:59:11;14.60;89.30
29281;DHT22;25048;49.590;11.026;2023-04-26T09:01:39;14.80;84.00
29281;DHT22;25048;49.590;11.026;2023-04-26T09:04:07;14.40;83.00
29281;DHT22;25048;49.590;11.026;2023-04-26T09:06:36;13.90;80.00
29281;DHT22;25048;49.590;11.026;2023-04-26T09:09:05;13.30;84.90
29281;DHT22;25048;49.590;11.026;2023-04-26T09:11:54;12.90;86.80
29281;DHT22;25048;49.590;11.026;2023-04-26T09:14:22;12.40;86.20
29281;DHT22;25048;49.590;11.026;2023-04-26T09:16:50;11.70;85.50
29281;DHT22;25048;49.590;11.026;2023-04-26T09:19:35;11.20;88.20
29281;DHT22;25048;49.590;11.026;2023-04-26T09:22:04;11.40;91.00
29281;DHT22;25048;49.590;11.026;2023-04-26T09:24:48;11.80;90.30
29281;DHT22;25048;49.590;11.026;2023-04-26T09:27:20;12.20;91.10
29281;DHT22;25048;49.590;11.026;2023-04-26T09:30:06;12.70;90.60
29281;DHT22;25048;49.590;11.026;2023-04-26T09:38:17;14.10;82.50
29281;DHT22;25048;49.590;11.026;2023-04-26T09:40:46;14.30;83.20
29281;DHT22;25048;49.590;11.026;2023-04-26T09:45:57;14.20;81.30
29281;DHT22;25048;49.590;11.026;2023-04-26T09:48:29;13.90;82.30
29281;DHT22;25048;49.590;11.026;2023-04-26T09:53:45;14.20;80.60
29281;DHT22;25048;49.590;11.026;2023-04-26T09:56:12;14.10;80.80
29281;DHT22;25048;49.590;11.026;2023-04-26T09:58:54;14.30;83.60
29281;DHT22;25048;49.590;11.026;2023-04-26T10:01:27;14.70;87.00
29281;DHT22;25048;49.590;11.026;2023-04-26T10:03:56;15.70;85.60
29281;DHT22;25048;49.590;11.026;2023-04-26T10:06:23;16.50;73.70
29281;DHT22;25048;49.590;11.026;2023-04-26T10:08:53;16.80;71.90
29281;DHT22;25048;49.590;11.026;2023-04-26T10:11:21;17.00;71.20
29281;DHT22;25048;49.590;11.026;2023-04-26T10:13:49;16.90;68.10
29281;DHT22;25048;49.590;11.026;2023-04-26T10:16:19;16.50;67.80
29281;DHT22;25048;49.590;11.026;2023-04-26T10:18:47;16.40;65.30
29281;DHT22;25048;49.590;11.026;2023-04-26T10:21:25;16.40;68.70
29281;DHT22;25048;49.590;11.026;2023-04-26T10:23:47;16.60;67.10
29281;DHT22;25048;49.590;11.026;2023-04-26T10:26:46;16.80;71.40
29281;DHT22;25048;49.590;11.026;2023-04-26T10:29:23;17.40;69.30
29281;DHT22;25048;49.590;11.026;2023-04-26T10:34:32;16.30;66.50
29281;DHT22;25048;49.590;11.026;2023-04-26T10:39:41;15.40;65.10
29281;DHT22;25048;49.590;11.026;2023-04-26T10:42:26;14.80;64.10
29281;DHT22;25048;49.590;11.026;2023-04-26T10:44:56;14.50;66.70
29281;DHT22;25048;49.590;11.026;2023-04-26T10:47:33;14.30;66.50
29281;DHT22;25048;49.590;11.026;2023-04-26T10:50:04;14.30;65.40
29281;DHT22;25048;49.590;11.026;2023-04-26T10:52:33;14.30;64.70
29281;DHT22;25048;49.590;11.026;2023-04-26T10:55:01;14.20;63.70
29281;DHT22;25048;49.590;11.026;2023-04-26T10:57:50;14.30;66.70
29281;DHT22;25048;49.590;11.026;2023-04-26T11:00:27;14.50;65.00
29281;DHT22;25048;49.590;11.026;2023-04-26T11:03:05;14.50;64.00
29281;DHT22;25048;49.590;11.026;2023-04-26T11:05:40;14.50;65.70
29281;DHT22;25048;49.590;11.026;2023-04-26T11:08:17;14.50;65.30
29281;DHT22;25048;49.590;11.026;2023-04-26T11:10:51;14.40;68.00
29281;DHT22;25048;49.590;11.026;2023-04-26T11:13:18;14.60;63.80
29281;DHT22;25048;49.590;11.026;2023-04-26T11:15:47;14.70;63.70
29281;DHT22;25048;49.590;11.026;2023-04-26T11:18:18;14.90;63.30
29281;DHT22;25048;49.590;11.026;2023-04-26T11:20:46;15.30;64.70
29281;DHT22;25048;49.590;11.026;2023-04-26T11:23:14;15.80;62.90
29281;DHT22;25048;49.590;11.026;2023-04-26T11:25:43;15.70;60.30
29281;DHT22;25048;49.590;11.026;2023-04-26T11:28:11;15.50;60.50
29281;DHT22;25048;49.590;11.026;2023-04-26T11:30:38;15.20;61.40
29281;DHT22;25048;49.590;11.026;2023-04-26T11:33:06;15.30;61.20
29281;DHT22;25048;49.590;11.026;2023-04-26T11:35:35;15.70;61.50
29281;DHT22;25048;49.590;11.026;2023-04-26T11:38:05;15.80;58.70
29281;DHT22;25048;49.590;11.026;2023-04-26T11:40:33;15.80;59.00
29281;DHT22;25048;49.590;11.026;2023-04-26T11:43:06;15.80;61.80
29281;DHT22;25048;49.590;11.026;2023-04-26T11:45:36;15.90;63.10
29281;DHT22;25048;49.590;11.026;2023-04-26T11:48:09;16.10;61.60
29281;DHT22;25048;49.590;11.026;2023-04-26T11:50:38;16.20;60.00
29281;DHT22;25048;49.590;11.026;2023-04-26T11:53:07;16.30;57.80
29281;DHT22;25048;49.590;11.026;2023-04-26T11:55:35;16.60;60.00
29281;DHT22;25048;49.590;11.026;2023-04-26T11:58:11;17.10;60.40
29281;DHT22;25048;49.590;11.026;2023-04-26T12:00:56;17.30;55.30
29281;DHT22;25048;49.590;11.026;2023-04-26T12:03:34;17.30;55.20
29281;DHT22;25048;49.590;11.026;2023-04-26T12:05:58;17.10;55.30
29281;DHT22;25048;49.590;11.026;2023-04-26T12:08:27;17.00;55.60
29281;DHT22;25048;49.590;11.026;2023-04-26T12:10:59;16.90;56.90
29281;DHT22;25048;49.590;11.026;2023-04-26T12:13:29;16.80;56.80
29281;DHT22;25048;49.590;11.026;2023-04-26T12:15:58;16.60;56.90
29281;DHT22;25048;49.590;11.026;2023-04-26T12:18:31;16.70;56.40
29281;DHT22;25048;49.590;11.026;2023-04-26T12:21:00;17.00;58.70
29281;DHT22;25048;49.590;11.026;2023-04-26T12:23:36;17.70;56.50
29281;DHT22;25048;49.590;11.026;2023-04-26T12:26:05;18.40;56.50
29281;DHT22;25048;49.590;11.026;2023-04-26T12:28:33;18.60;53.70
29281;DHT22;25048;49.590;11.026;2023-04-26T12:31:00;18.20;53.10
29281;DHT22;25048;49.590;11.026;2023-04-26T12:33:30;18.10;53.30
29281;DHT22;25048;49.590;11.026;2023-04-26T12:36:06;17.90;53.40
29281;DHT22;25048;49.590;11.026;2023-04-26T12:38:34;17.90;54.50
29281;DHT22;25048;49.590;11.026;2023-04-26T12:41:02;18.50;55.80
29281;DHT22;25048;49.590;11.026;2023-04-26T12:43:29;18.90;52.50
29281;DHT22;25048;49.590;11.026;2023-04-26T12:45:57;18.60;50.90
29281;DHT22;25048;49.590;11.026;2023-04-26T12:48:24;18.20;52.30
29281;DHT22;25048;49.590;11.026;2023-04-26T12:50:52;18.00;54.10
29281;DHT22;25048;49.590;11.026;2023-04-26T12:53:19;17.80;54.20
29281;DHT22;25048;49.590;11.026;2023-04-26T12:55:47;18.10;55.90
29281;DHT22;25048;49.590;11.026;2023-04-26T12:58:14;18.30;52.30
29281;DHT22;25048;49.590;11.026;2023-04-26T13:00:42;17.80;54.10
29281;DHT22;25048;49.590;11.026;2023-04-26T13:03:09;17.60;53.40
29281;DHT22;25048;49.590;11.026;2023-04-26T13:05:39;17.60;54.50
29281;DHT22;25048;49.590;11.026;2023-04-26T13:08:07;18.50;54.10
29281;DHT22;25048;49.590;11.026;2023-04-26T13:10:35;20.10;52.40
29281;DHT22;25048;49.590;11.026;2023-04-26T13:13:03;21.50;49.60
29281;DHT22;25048;49.590;11.026;2023-04-26T13:15:30;22.00;48.10
29281;DHT22;25048;49.590;11.026;2023-04-26T13:17:58;23.20;45.70
29281;DHT22;25048;49.590;11.026;2023-04-26T13:20:25;23.70;46.30
29281;DHT22;25048;49.590;11.026;2023-04-26T13:22:53;23.70;44.40
29281;DHT22;25048;49.590;11.026;2023-04-26T13:25:21;23.30;42.20
29281;DHT22;25048;49.590;11.026;2023-04-26T13:27:48;22.00;43.80
29281;DHT22;25048;49.590;11.026;2023-04-26T13:30:17;20.90;45.70
29281;DHT22;25048;49.590;11.026;2023-04-26T13:32:45;20.70;46.80
29281;DHT22;25048;49.590;11.026;2023-04-26T13:35:13;21.00;45.20
29281;DHT22;25048;49.590;11.026;2023-04-26T13:37:40;21.90;45.40
29281;DHT22;25048;49.590;11.026;2023-04-26T13:40:08;22.80;44.20
29281;DHT22;25048;49.590;11.026;2023-04-26T13:42:37;23.40;44.20
29281;DHT22;25048;49.590;11.026;2023-04-26T13:45:05;23.70;42.90
29281;DHT22;25048;49.590;11.026;2023-04-26T13:47:34;23.70;42.00
29281;DHT22;25048;49.590;11.026;2023-04-26T13:50:02;23.00;44.20
29281;DHT22;25048;49.590;11.026;2023-04-26T13:52:30;22.60;44.40
29281;DHT22;25048;49.590;11.026;2023-04-26T13:54:57;21.80;42.90
29281;DHT22;25048;49.590;11.026;2023-04-26T13:57:25;20.80;44.20
29281;DHT22;25048;49.590;11.026;2023-04-26T13:59:53;20.50;46.40
29281;DHT22;25048;49.590;11.026;2023-04-26T14:02:21;20.70;46.50
29281;DHT22;25048;49.590;11.026;2023-04-26T14:04:49;20.30;47.40
29281;DHT22;25048;49.590;11.026;2023-04-26T14:07:17;19.80;47.70
29281;DHT22;25048;49.590;11.026;2023-04-26T14:09:44;19.70;47.50
29281;DHT22;25048;49.590;11.026;2023-04-26T14:12:12;20.90;47.40
29281;DHT22;25048;49.590;11.026;2023-04-26T14:14:40;22.90;43.60
29281;DHT22;25048;49.590;11.026;2023-04-26T14:17:07;23.40;39.50
29281;DHT22;25048;49.590;11.026;2023-04-26T14:19:35;23.60;39.80
29281;DHT22;25048;49.590;11.026;2023-04-26T14:22:02;24.60;39.60
29281;DHT22;25048;49.590;11.026;2023-04-26T14:24:30;25.00;38.80
29281;DHT22;25048;49.590;11.026;2023-04-26T14:26:59;24.80;40.70
29281;DHT22;25048;49.590;11.026;2023-04-26T14:29:28;25.30;40.00
29281;DHT22;25048;49.590;11.026;2023-04-26T14:31:56;24.70;39.20
29281;DHT22;25048;49.590;11.026;2023-04-26T14:34:23;23.90;39.50
29281;DHT22;25048;49.590;11.026;2023-04-26T14:36:51;23.00;42.30
29281;DHT22;25048;49.590;11.026;2023-04-26T14:39:19;22.60;42.80
29281;DHT22;25048;49.590;11.026;2023-04-26T14:41:46;23.00;41.20
29281;DHT22;25048;49.590;11.026;2023-04-26T14:44:14;22.40;40.60
29281;DHT22;25048;49.590;11.026;2023-04-26T14:46:41;22.20;43.10
29281;DHT22;25048;49.590;11.026;2023-04-26T14:49:09;22.40;41.10
29281;DHT22;25048;49.590;11.026;2023-04-26T14:51:37;22.50;40.70
29281;DHT22;25048;49.590;11.026;2023-04-26T14:54:04;21.80;41.80
29281;DHT22;25048;49.590;11.026;2023-04-26T14:56:33;21.10;44.60
29281;DHT22;25048;49.590;11.026;2023-04-26T14:59:02;20.70;44.10
29281;DHT22;25048;49.590;11.026;2023-04-26T15:01:30;22.50;42.00
29281;DHT22;25048;49.590;11.026;2023-04-26T15:03:57;24.50;41.90
29281;DHT22;25048;49.590;11.026;2023-04-26T15:06:25;26.70;39.10
29281;DHT22;25048;49.590;11.026;2023-04-26T15:08:52;28.60;35.70
29281;DHT22;25048;49.590;11.026;2023-04-26T15:11:20;28.50;34.50
29281;DHT22;25048;49.590;11.026;2023-04-26T15:13:47;27.80;35.20
29281;DHT22;25048;49.590;11.026;2023-04-26T15:16:15;26.30;34.50
29281;DHT22;25048;49.590;11.026;2023-04-26T15:18:42;24.10;36.30
29281;DHT22;25048;49.590;11.026;2023-04-26T15:21:15;22.60;39.00
29281;DHT22;25048;49.590;11.026;2023-04-26T15:23:43;21.80;38.80
29281;DHT22;25048;49.590;11.026;2023-04-26T15:26:10;21.70;40.10
29281;DHT22;25048;49.590;11.026;2023-04-26T15:28:41;21.50;40.60
29281;DHT22;25048;49.590;11.026;2023-04-26T15:31:08;22.10;42.10
29281;DHT22;25048;49.590;11.026;2023-04-26T15:33:36;24.60;37.80
29281;DHT22;25048;49.590;11.026;2023-04-26T15:36:04;26.50;35.10
29281;DHT22;25048;49.590;11.026;2023-04-26T15:38:35;26.50;34.00
29281;DHT22;25048;49.590;11.026;2023-04-26T15:41:03;24.90;34.10
29281;DHT22;25048;49.590;11.026;2023-04-26T15:43:30;23.30;36.40
29281;DHT22;25048;49.590;11.026;2023-04-26T15:45:58;22.40;40.10